Time;durP1;ratioP1;P1;durP2;ratioP2;P2;SDS_P1;SDS_P2;PMS_P1;PMS_P2;Temp;Humidity;BMP_temperature;BMP_pressure;BME280_temperature;BME280_humidity;BME280_pressure;Samples;Min_cycle;Max_cycle;Signal;HPM_P1;HPM_P2
2024/03/26 00:01:42;;;;;;;11.77;4.18;;;5.30;1.00;;;;;;5072361;28;20123;-68
2024/03/26 00:04:08;;;;;;;9.48;3.60;;;5.20;1.00;;;;;;5074230;28;20107;-68
2024/03/26 00:06:33;;;;;;;9.93;3.67;;;5.30;1.00;;;;;;5076010;28;20048;-68
2024/03/26 00:08:59;;;;;;;9.70;3.72;;;5.30;99.90;;;;;;5076040;28;20027;-68
2024/03/26 00:11:24;;;;;;;17.27;4.05;;;5.30;99.90;;;;;;5076197;28;20032;-68
2024/03/26 00:13:50;;;;;;;11.43;4.22;;;5.30;99.90;;;;;;5075622;28;20479;-68
2024/03/26 00:16:15;;;;;;;10.05;3.70;;;5.40;99.90;;;;;;5075949;28;20027;-68
2024/03/26 00:18:41;;;;;;;17.17;3.83;;;5.30;99.90;;;;;;5075460;28;20025;-68
2024/03/26 00:21:06;;;;;;;11.85;3.95;;;5.30;99.90;;;;;;5075629;28;20422;-68
2024/03/26 00:23:32;;;;;;;8.82;3.92;;;5.30;99.90;;;;;;5075494;28;20032;-68
2024/03/26 00:25:57;;;;;;;8.35;3.25;;;5.30;99.90;;;;;;5075679;28;20024;-68
2024/03/26 00:28:23;;;;;;;8.93;3.97;;;5.30;99.90;;;;;;5075647;28;20077;-68
2024/03/26 00:30:48;;;;;;;8.95;3.83;;;5.20;99.90;;;;;;5075543;28;20470;-68
2024/03/26 00:33:14;;;;;;;9.20;3.95;;;5.20;99.90;;;;;;5075695;28;20083;-68
2024/03/26 00:35:39;;;;;;;13.23;3.90;;;5.20;99.90;;;;;;5075616;28;20043;-68
2024/03/26 00:38:05;;;;;;;10.73;3.92;;;5.10;1.00;;;;;;5075406;28;20032;-68
2024/03/26 00:40:31;;;;;;;7.22;3.78;;;5.10;1.00;;;;;;5075277;28;20068;-68
2024/03/26 00:42:56;;;;;;;6.97;3.40;;;5.10;1.00;;;;;;5075416;28;20101;-68
2024/03/26 00:45:22;;;;;;;13.05;4.68;;;5.10;1.00;;;;;;5075330;28;20436;-68
2024/03/26 00:47:47;;;;;;;12.27;3.72;;;5.10;1.00;;;;;;5075269;28;20036;-68
2024/03/26 00:50:13;;;;;;;10.90;4.53;;;5.10;1.00;;;;;;5075282;28;20037;-68
2024/03/26 00:52:39;;;;;;;8.95;4.03;;;5.10;99.90;;;;;;5074955;28;20028;-68
2024/03/26 00:55:04;;;;;;;11.90;4.40;;;5.10;1.00;;;;;;5075061;28;20035;-68
2024/03/26 00:57:30;;;;;;;9.52;4.32;;;5.00;1.00;;;;;;5075042;28;20032;-68
2024/03/26 00:59:55;;;;;;;8.73;3.72;;;5.00;1.00;;;;;;5074932;28;20031;-68
2024/03/26 01:02:21;;;;;;;9.02;4.45;;;5.00;1.00;;;;;;5075124;28;20034;-68
2024/03/26 01:04:46;;;;;;;12.00;4.45;;;5.00;1.00;;;;;;5075028;28;20398;-68
2024/03/26 01:07:12;;;;;;;11.65;4.15;;;5.00;1.00;;;;;;5074923;28;20024;-68
2024/03/26 01:09:37;;;;;;;12.30;4.47;;;5.00;1.00;;;;;;5074937;28;20394;-68
2024/03/26 01:12:03;;;;;;;9.40;3.72;;;5.00;1.00;;;;;;5074877;28;20025;-68
2024/03/26 01:14:28;;;;;;;12.60;3.83;;;5.00;1.00;;;;;;5074568;28;20021;-68
2024/03/26 01:16:54;;;;;;;10.30;4.57;;;5.00;23.40;;;;;;5074719;28;20020;-68
2024/03/26 01:19:19;;;;;;;8.00;3.92;;;4.90;44.90;;;;;;5074652;28;20501;-68
2024/03/26 01:21:47;;;;;;;15.70;4.13;;;4.90;99.90;;;;;;5074425;28;20024;-68
2024/03/26 01:24:13;;;;;;;12.85;4.25;;;4.90;99.90;;;;;;5074454;28;20031;-68
2024/03/26 01:26:38;;;;;;;11.15;4.35;;;4.90;99.90;;;;;;5074417;28;20398;-68
2024/03/26 01:29:04;;;;;;;9.20;4.00;;;5.00;99.90;;;;;;5074571;28;20039;-68
2024/03/26 01:31:29;;;;;;;10.48;4.00;;;5.00;99.90;;;;;;5074536;28;20090;-68
2024/03/26 01:33:55;;;;;;;9.35;4.30;;;5.00;99.90;;;;;;5074380;28;20440;-68
2024/03/26 01:36:20;;;;;;;12.57;3.97;;;5.00;99.90;;;;;;5074297;28;20470;-68
2024/03/26 01:38:46;;;;;;;14.50;4.45;;;5.00;70.50;;;;;;5073975;28;20045;-68
2024/03/26 01:41:11;;;;;;;8.32;4.05;;;5.10;4.90;;;;;;5074105;28;20050;-68
2024/03/26 01:43:37;;;;;;;16.02;5.38;;;5.10;1.00;;;;;;5074245;28;20032;-68
2024/03/26 01:46:02;;;;;;;12.95;4.15;;;5.20;1.00;;;;;;5074254;28;20029;-68
2024/03/26 01:48:28;;;;;;;11.82;4.47;;;5.20;1.00;;;;;;5074229;28;20024;-68
2024/03/26 01:50:54;;;;;;;10.18;3.78;;;5.20;1.00;;;;;;5074017;28;20103;-68
2024/03/26 01:53:20;;;;;;;9.35;4.50;;;5.30;1.00;;;;;;5074089;28;20037;-68
2024/03/26 01:55:47;;;;;;;9.23;3.50;;;5.30;99.90;;;;;;5074018;28;20060;-68
2024/03/26 01:58:12;;;;;;;9.38;4.00;;;5.30;99.90;;;;;;5073944;28;20071;-68
2024/03/26 02:00:40;;;;;;;7.82;4.13;;;5.30;99.90;;;;;;5073713;28;20455;-68
2024/03/26 02:03:05;;;;;;;11.32;3.90;;;5.30;99.90;;;;;;5073870;28;20048;-68
2024/03/26 02:05:31;;;;;;;8.80;3.95;;;5.30;99.90;;;;;;5073707;28;20020;-68
2024/03/26 02:07:57;;;;;;;9.55;4.22;;;5.30;99.90;;;;;;5073946;28;20089;-68
2024/03/26 02:10:22;;;;;;;13.38;4.20;;;5.20;99.90;;;;;;5073673;28;20032;-68
2024/03/26 02:12:48;;;;;;;14.30;3.90;;;5.20;99.90;;;;;;5073553;28;20028;-68
2024/03/26 02:15:13;;;;;;;7.50;3.85;;;5.20;99.90;;;;;;5073747;28;20087;-68
2024/03/26 02:17:39;;;;;;;10.23;3.90;;;5.10;99.90;;;;;;5073477;28;20025;-68
2024/03/26 02:20:05;;;;;;;7.90;3.60;;;5.10;99.90;;;;;;5073285;28;20391;-68
2024/03/26 02:22:31;;;;;;;8.60;3.83;;;5.10;99.90;;;;;;5073279;28;20498;-68
2024/03/26 02:24:57;;;;;;;8.23;3.95;;;5.00;99.90;;;;;;5073529;28;20031;-68
2024/03/26 02:27:22;;;;;;;10.05;3.88;;;5.00;99.90;;;;;;5072925;28;20028;-68
2024/03/26 02:29:47;;;;;;;12.65;4.22;;;5.00;99.90;;;;;;5073102;28;20025;-68
2024/03/26 02:32:13;;;;;;;7.38;3.83;;;5.10;99.90;;;;;;5073565;28;20028;-68
2024/03/26 02:34:39;;;;;;;8.55;3.40;;;5.10;99.90;;;;;;5073138;28;20024;-68
2024/03/26 02:37:04;;;;;;;9.63;3.70;;;5.00;99.90;;;;;;5073498;28;20537;-68
2024/03/26 02:39:30;;;;;;;9.55;3.30;;;5.00;99.90;;;;;;5073135;28;20119;-68
2024/03/26 02:41:56;;;;;;;8.20;3.47;;;5.00;99.90;;;;;;5073262;28;20056;-68
2024/03/26 02:44:21;;;;;;;7.55;3.92;;;5.00;99.90;;;;;;5073322;28;20437;-68
2024/03/26 02:46:47;;;;;;;7.78;4.20;;;4.90;99.90;;;;;;5073018;28;20029;-68
2024/03/26 02:49:12;;;;;;;12.15;3.90;;;4.90;99.90;;;;;;5073164;28;20078;-67
2024/03/26 02:51:38;;;;;;;5.53;3.40;;;5.00;99.90;;;;;;5073310;28;20111;-68
2024/03/26 02:54:03;;;;;;;9.80;4.07;;;5.00;99.90;;;;;;5073350;28;20032;-68
2024/03/26 02:56:29;;;;;;;12.63;4.03;;;5.00;99.90;;;;;;5073075;28;20035;-68
2024/03/26 02:58:54;;;;;;;10.98;4.55;;;5.00;99.90;;;;;;5073137;28;20104;-67
2024/03/26 03:01:20;;;;;;;9.25;4.05;;;5.00;99.90;;;;;;5072836;28;20376;-68
2024/03/26 03:03:45;;;;;;;8.00;4.45;;;5.00;99.90;;;;;;5072877;28;20029;-68
2024/03/26 03:06:11;;;;;;;11.40;3.78;;;5.00;99.90;;;;;;5072981;28;20024;-67
2024/03/26 03:08:37;;;;;;;7.45;3.67;;;5.00;99.90;;;;;;5073001;28;20025;-68
2024/03/26 03:11:04;;;;;;;11.55;3.35;;;5.00;99.90;;;;;;5072988;28;20111;-68
2024/03/26 03:13:29;;;;;;;8.52;3.83;;;5.00;99.90;;;;;;5072796;28;20025;-68
2024/03/26 03:15:55;;;;;;;9.48;3.80;;;5.10;99.90;;;;;;5073072;28;20384;-68
2024/03/26 03:18:21;;;;;;;8.93;3.72;;;5.20;99.90;;;;;;5072876;28;20494;-68
2024/03/26 03:20:46;;;;;;;12.02;4.18;;;5.20;99.90;;;;;;5072751;28;20578;-68
2024/03/26 03:23:12;;;;;;;10.85;4.35;;;5.30;99.90;;;;;;5072967;28;20070;-68
2024/03/26 03:25:38;;;;;;;10.90;3.95;;;5.20;99.90;;;;;;5072834;28;20028;-68
2024/03/26 03:28:04;;;;;;;10.68;4.10;;;5.30;99.90;;;;;;5072558;28;20493;-68
2024/03/26 03:30:30;;;;;;;10.20;3.72;;;5.20;99.90;;;;;;5072829;28;20035;-68
2024/03/26 03:32:55;;;;;;;6.70;3.63;;;5.20;99.90;;;;;;5055070;28;20029;-68
2024/03/26 03:35:21;;;;;;;8.48;3.75;;;5.20;99.90;;;;;;5072907;28;20028;-68
2024/03/26 03:37:47;;;;;;;9.73;3.60;;;5.30;99.90;;;;;;5072670;28;20032;-68
2024/03/26 03:40:13;;;;;;;8.60;3.67;;;5.30;99.90;;;;;;5075917;28;20041;-68
2024/03/26 03:42:38;;;;;;;8.57;4.00;;;5.30;99.90;;;;;;5076431;28;20055;-68
2024/03/26 03:45:05;;;;;;;12.48;3.45;;;5.30;99.90;;;;;;5076405;28;20071;-68
2024/03/26 03:47:30;;;;;;;10.50;3.80;;;5.30;99.90;;;;;;5076714;28;20458;-68
2024/03/26 03:49:56;;;;;;;7.22;3.63;;;5.30;99.90;;;;;;5076359;28;20052;-68
2024/03/26 03:52:22;;;;;;;8.18;3.42;;;5.30;99.90;;;;;;5076368;28;20529;-68
2024/03/26 03:54:48;;;;;;;8.02;3.80;;;5.30;91.40;;;;;;5075940;28;20024;-68
2024/03/26 03:57:13;;;;;;;7.80;3.95;;;5.30;59.40;;;;;;5075992;28;20017;-68
2024/03/26 03:59:39;;;;;;;6.85;3.67;;;5.30;61.90;;;;;;5076091;28;20371;-68
2024/03/26 04:02:04;;;;;;;14.55;3.50;;;5.30;41.00;;;;;;5076097;28;20536;-68
2024/03/26 04:04:30;;;;;;;7.05;3.63;;;5.30;53.60;;;;;;5076134;28;20017;-68
2024/03/26 04:06:55;;;;;;;9.85;3.85;;;5.20;49.30;;;;;;5076103;28;20028;-68
2024/03/26 04:09:21;;;;;;;5.22;3.30;;;5.20;80.10;;;;;;5075721;28;20062;-68
2024/03/26 04:11:46;;;;;;;9.13;3.92;;;5.20;73.20;;;;;;5058216;28;20033;-68
2024/03/26 04:14:12;;;;;;;8.88;3.75;;;5.20;88.70;;;;;;5075797;28;20111;-68
2024/03/26 04:16:37;;;;;;;13.07;4.20;;;5.20;92.90;;;;;;5075764;28;20035;-68
2024/03/26 04:19:03;;;;;;;6.43;3.10;;;5.20;97.90;;;;;;5076016;28;20032;-68
2024/03/26 04:21:28;;;;;;;8.65;3.55;;;5.20;99.90;;;;;;5075664;28;20035;-68
2024/03/26 04:23:55;;;;;;;9.43;3.22;;;5.20;96.50;;;;;;5075694;28;20475;-67
2024/03/26 04:26:20;;;;;;;7.05;3.65;;;5.10;99.90;;;;;;5057908;28;20074;-68
2024/03/26 04:28:46;;;;;;;10.77;3.90;;;5.20;81.80;;;;;;5075775;28;20025;-68
2024/03/26 04:31:11;;;;;;;12.73;4.40;;;5.20;72.10;;;;;;5075763;28;20029;-67
2024/03/26 04:33:37;;;;;;;7.85;4.07;;;5.20;54.90;;;;;;5075636;28;20032;-68
2024/03/26 04:36:03;;;;;;;8.00;3.42;;;5.30;42.20;;;;;;5075693;28;20032;-68
2024/03/26 04:38:28;;;;;;;11.98;3.95;;;5.20;44.10;;;;;;5075416;28;20056;-68
2024/03/26 04:40:54;;;;;;;8.50;3.95;;;5.20;42.30;;;;;;5075377;28;20037;-68
2024/03/26 04:43:20;;;;;;;7.78;3.60;;;5.20;51.80;;;;;;5075247;28;20032;-68
2024/03/26 04:45:46;;;;;;;5.45;3.13;;;5.20;24.90;;;;;;5075276;28;20073;-68
2024/03/26 04:48:11;;;;;;;9.88;3.95;;;5.20;27.80;;;;;;5075141;28;20025;-68
2024/03/26 04:50:37;;;;;;;10.52;3.50;;;5.30;12.40;;;;;;5074911;28;20081;-68
2024/03/26 04:53:02;;;;;;;7.90;3.28;;;5.20;28.60;;;;;;5075227;28;20029;-68
2024/03/26 04:55:28;;;;;;;6.32;3.70;;;5.20;22.50;;;;;;5075292;28;20107;-68
2024/03/26 04:57:53;;;;;;;7.78;3.42;;;5.20;11.50;;;;;;5075120;28;20028;-68
2024/03/26 05:00:19;;;;;;;7.50;3.97;;;5.20;3.20;;;;;;5075010;28;20116;-68
2024/03/26 05:02:44;;;;;;;7.85;3.47;;;5.20;5.50;;;;;;5074959;28;20029;-68
2024/03/26 05:05:10;;;;;;;7.65;3.33;;;5.20;6.70;;;;;;5075122;28;20021;-68
2024/03/26 05:07:37;;;;;;;9.98;3.97;;;5.20;1.00;;;;;;5074850;28;20108;-68
2024/03/26 05:10:03;;;;;;;9.45;3.88;;;5.20;1.00;;;;;;5074996;28;20025;-68
2024/03/26 05:12:29;;;;;;;6.60;3.97;;;5.20;1.00;;;;;;5074753;28;20032;-68
2024/03/26 05:14:55;;;;;;;6.80;3.33;;;5.30;1.00;;;;;;5074981;28;20037;-68
2024/03/26 05:17:21;;;;;;;9.10;3.65;;;5.20;1.00;;;;;;5074838;28;20417;-67
2024/03/26 05:19:47;;;;;;;8.50;3.72;;;5.20;1.00;;;;;;5074418;28;20086;-68
2024/03/26 05:22:12;;;;;;;9.05;3.47;;;5.20;1.00;;;;;;5074764;28;20024;-68
2024/03/26 05:24:39;;;;;;;7.15;3.72;;;5.20;8.50;;;;;;5074561;28;20021;-68
2024/03/26 05:27:05;;;;;;;6.13;3.47;;;5.30;1.00;;;;;;5074486;28;20020;-67
2024/03/26 05:29:31;;;;;;;6.15;3.72;;;5.30;1.00;;;;;;5074637;28;20485;-68
2024/03/26 05:31:57;;;;;;;8.23;3.53;;;5.30;1.00;;;;;;5074427;28;20029;-68
2024/03/26 05:34:23;;;;;;;6.20;3.75;;;5.30;1.00;;;;;;5074614;28;20055;-67
2024/03/26 05:36:48;;;;;;;7.68;4.18;;;5.20;1.00;;;;;;5074218;28;20036;-68
2024/03/26 05:39:15;;;;;;;9.00;3.53;;;5.20;1.00;;;;;;5074033;28;20123;-68
2024/03/26 05:41:40;;;;;;;11.77;4.35;;;5.20;1.00;;;;;;5074078;28;20497;-68
2024/03/26 05:44:06;;;;;;;16.67;4.28;;;5.30;1.00;;;;;;5074273;28;20025;-68
2024/03/26 05:46:33;;;;;;;4.75;3.47;;;5.30;6.50;;;;;;5056342;28;20075;-67
2024/03/26 05:48:58;;;;;;;5.65;3.72;;;5.30;1.00;;;;;;5074141;28;20372;-67
2024/03/26 05:51:24;;;;;;;8.43;3.70;;;5.30;1.00;;;;;;5074271;28;20031;-68
2024/03/26 05:53:49;;;;;;;10.52;3.58;;;5.30;3.90;;;;;;5073912;28;20036;-68
2024/03/26 05:56:15;;;;;;;9.70;3.70;;;5.30;1.00;;;;;;5073947;28;20028;-68
2024/03/26 05:58:41;;;;;;;7.05;4.10;;;5.30;8.30;;;;;;5074066;28;20081;-67
2024/03/26 06:01:06;;;;;;;9.40;3.70;;;5.30;1.70;;;;;;5072959;28;20115;-67
2024/03/26 06:03:32;;;;;;;7.35;3.40;;;5.40;18.00;;;;;;5073417;28;20025;-68
2024/03/26 06:05:58;;;;;;;10.52;4.18;;;5.40;12.20;;;;;;5073888;28;20062;-67
2024/03/26 06:08:24;;;;;;;7.70;3.80;;;5.40;18.10;;;;;;5073868;28;20052;-68
2024/03/26 06:10:49;;;;;;;7.57;3.40;;;5.50;1.00;;;;;;5073685;28;20087;-68
2024/03/26 06:13:15;;;;;;;8.95;3.70;;;5.50;1.00;;;;;;5073801;28;20522;-67
2024/03/26 06:15:41;;;;;;;7.78;3.50;;;5.60;1.00;;;;;;5073598;28;20104;-68
2024/03/26 06:18:06;;;;;;;8.45;3.88;;;5.60;1.00;;;;;;5073396;28;20055;-68
2024/03/26 06:20:32;;;;;;;5.47;3.78;;;5.70;1.00;;;;;;5073474;28;20029;-68
2024/03/26 06:22:57;;;;;;;9.60;3.60;;;5.70;1.00;;;;;;5073541;28;20040;-67
2024/03/26 06:25:23;;;;;;;7.32;3.80;;;5.80;1.00;;;;;;5073370;28;20103;-67
2024/03/26 06:27:49;;;;;;;9.20;4.07;;;5.90;1.00;;;;;;5073341;28;20028;-68
2024/03/26 06:30:14;;;;;;;11.80;4.95;;;5.90;1.00;;;;;;5073349;28;20115;-67
2024/03/26 06:32:40;;;;;;;7.80;3.95;;;6.00;1.00;;;;;;5073318;28;20416;-68
2024/03/26 06:35:06;;;;;;;9.68;3.63;;;6.20;1.00;;;;;;5073490;28;20047;-68
2024/03/26 06:37:32;;;;;;;9.88;4.07;;;6.20;1.00;;;;;;5055757;28;20486;-68
2024/03/26 06:39:57;;;;;;;7.70;3.80;;;6.40;1.00;;;;;;5072992;28;20090;-68
2024/03/26 06:42:23;;;;;;;7.10;3.72;;;6.40;99.90;;;;;;5073384;28;20035;-67
2024/03/26 06:44:49;;;;;;;7.07;3.67;;;6.60;99.90;;;;;;5073387;28;20177;-67
2024/03/26 06:47:14;;;;;;;13.13;3.95;;;6.50;99.90;;;;;;5073052;28;20035;-68
2024/03/26 06:49:40;;;;;;;8.73;3.58;;;6.40;99.90;;;;;;5073157;28;20078;-68
2024/03/26 06:52:06;;;;;;;6.25;3.50;;;6.60;99.90;;;;;;5073133;28;20029;-67
2024/03/26 06:54:33;;;;;;;8.80;3.80;;;6.60;99.90;;;;;;5073367;28;20033;-68
2024/03/26 06:56:59;;;;;;;7.93;3.67;;;6.70;99.90;;;;;;5073111;28;20509;-68
2024/03/26 06:59:24;;;;;;;5.55;3.42;;;6.80;99.90;;;;;;5073185;28;20074;-68
2024/03/26 07:01:50;;;;;;;7.78;3.60;;;7.00;99.90;;;;;;5072829;28;20474;-68
2024/03/26 07:04:16;;;;;;;7.20;4.07;;;7.40;99.90;;;;;;5073215;28;20418;-68
2024/03/26 07:06:42;;;;;;;6.45;3.92;;;7.70;99.90;;;;;;5073035;28;20035;-67
2024/03/26 07:09:08;;;;;;;7.53;3.35;;;8.00;99.90;;;;;;5072734;28;20024;-68
2024/03/26 07:11:33;;;;;;;6.70;3.60;;;8.30;99.90;;;;;;5073040;28;20090;-68
2024/03/26 07:13:59;;;;;;;4.93;3.15;;;8.30;99.90;;;;;;5076558;28;20470;-68
2024/03/26 07:16:25;;;;;;;5.78;3.13;;;8.50;95.50;;;;;;5076930;28;20032;-67
2024/03/26 07:18:51;;;;;;;6.38;3.63;;;9.00;21.30;;;;;;5076881;28;20029;-67
2024/03/26 07:21:17;;;;;;;7.53;3.78;;;9.30;1.00;;;;;;5076846;28;20021;-67
2024/03/26 07:23:43;;;;;;;9.15;3.38;;;9.70;1.00;;;;;;5077028;28;20031;-67
2024/03/26 07:26:09;;;;;;;6.93;3.58;;;10.00;1.00;;;;;;5076726;28;20028;-67
2024/03/26 07:28:35;;;;;;;6.07;3.33;;;10.20;1.00;;;;;;5076815;28;20386;-67
2024/03/26 07:31:00;;;;;;;8.30;3.70;;;10.10;1.00;;;;;;5076850;28;20036;-67
2024/03/26 07:33:27;;;;;;;8.70;3.45;;;9.90;1.00;;;;;;5076717;28;20036;-67
2024/03/26 07:35:52;;;;;;;10.27;3.70;;;9.80;1.00;;;;;;5076498;28;20020;-67
2024/03/26 07:38:18;;;;;;;7.47;3.55;;;10.30;1.00;;;;;;5076202;28;20115;-67
2024/03/26 07:40:43;;;;;;;7.15;3.45;;;10.60;1.00;;;;;;5076361;28;20033;-64
2024/03/26 07:43:09;;;;;;;5.15;3.00;;;10.60;99.90;;;;;;5076513;28;20037;-64
2024/03/26 07:45:35;;;;;;;5.88;3.67;;;;;;;;;;5076303;28;20401;-67
2024/03/26 07:48:02;;;;;;;7.72;3.40;;;12.20;99.90;;;;;;5076478;28;20115;-67
2024/03/26 07:50:28;;;;;;;7.00;3.38;;;12.30;99.90;;;;;;5076374;28;20036;-67
2024/03/26 07:52:54;;;;;;;7.88;3.88;;;11.90;99.90;;;;;;5076342;28;20032;-67
2024/03/26 07:55:19;;;;;;;10.35;3.72;;;11.70;99.90;;;;;;5076178;28;20272;-67
2024/03/26 07:57:45;;;;;;;6.03;3.40;;;11.40;99.90;;;;;;5076089;28;20028;-66
2024/03/26 08:00:11;;;;;;;6.50;3.45;;;11.10;99.90;;;;;;5076188;28;20488;-66
2024/03/26 08:02:38;;;;;;;6.15;3.50;;;10.90;99.90;;;;;;5076241;28;20025;-66
2024/03/26 08:05:04;;;;;;;6.75;3.45;;;11.00;99.90;;;;;;5076188;28;20081;-66
2024/03/26 08:07:30;;;;;;;13.07;4.50;;;10.80;99.90;;;;;;5075649;28;20024;-66
2024/03/26 08:09:56;;;;;;;10.65;3.83;;;10.50;99.90;;;;;;5076034;28;20020;-67
2024/03/26 08:12:21;;;;;;;8.63;3.88;;;10.30;99.90;;;;;;5075991;28;20382;-66
2024/03/26 08:14:47;;;;;;;5.15;3.38;;;10.10;99.90;;;;;;5058032;28;20486;-66
2024/03/26 08:17:13;;;;;;;7.00;3.88;;;10.00;99.90;;;;;;5075738;28;20017;-66
2024/03/26 08:19:39;;;;;;;6.40;3.22;;;9.90;99.90;;;;;;5075702;28;20479;-66
2024/03/26 08:22:04;;;;;;;9.52;4.13;;;9.80;99.90;;;;;;5075589;28;20059;-66
2024/03/26 08:24:30;;;;;;;7.05;3.60;;;9.70;99.90;;;;;;5075003;28;20021;-66
2024/03/26 08:26:55;;;;;;;7.05;3.70;;;9.60;99.90;;;;;;5075863;28;20379;-66
2024/03/26 08:29:21;;;;;;;9.30;3.60;;;9.50;99.90;;;;;;5075703;28;20024;-66
2024/03/26 08:31:46;;;;;;;7.07;3.20;;;9.50;99.90;;;;;;5075448;28;20029;-66
2024/03/26 08:34:12;;;;;;;9.02;3.60;;;9.60;99.90;;;;;;5075330;28;20020;-67
2024/03/26 08:36:37;;;;;;;9.52;3.75;;;9.40;99.90;;;;;;5075325;28;20032;-66
2024/03/26 08:39:03;;;;;;;6.75;3.78;;;9.50;99.90;;;;;;5075122;28;20068;-67
2024/03/26 08:41:28;;;;;;;8.02;3.72;;;9.40;99.90;;;;;;5075294;28;20398;-67
2024/03/26 08:43:54;;;;;;;5.07;3.63;;;9.20;99.90;;;;;;5075178;28;20070;-67
2024/03/26 08:46:20;;;;;;;5.40;3.50;;;9.30;99.90;;;;;;5075006;28;20025;-68
2024/03/26 08:48:46;;;;;;;14.15;4.35;;;9.30;99.90;;;;;;5075176;28;20024;-69
2024/03/26 08:51:12;;;;;;;6.45;3.78;;;9.50;99.90;;;;;;5074832;28;20025;-68
2024/03/26 08:53:38;;;;;;;5.80;3.40;;;9.60;99.90;;;;;;5074980;28;20094;-68
2024/03/26 08:56:04;;;;;;;7.07;3.50;;;9.70;99.90;;;;;;5074963;28;20035;-69
2024/03/26 08:58:29;;;;;;;8.70;3.72;;;9.70;99.90;;;;;;5075194;28;20033;-67
2024/03/26 09:00:55;;;;;;;4.82;3.20;;;9.80;99.90;;;;;;5074667;28;20473;-66
2024/03/26 09:03:21;;;;;;;6.13;3.10;;;10.00;99.90;;;;;;5074856;28;20025;-66
2024/03/26 09:05:46;;;;;;;11.02;3.38;;;10.10;99.90;;;;;;5074812;28;20493;-66
2024/03/26 09:08:12;;;;;;;5.78;3.10;;;10.10;99.90;;;;;;5074837;28;20029;-66
2024/03/26 09:10:38;;;;;;;7.15;3.38;;;10.10;99.90;;;;;;5074986;28;20032;-67
2024/03/26 09:13:04;;;;;;;6.40;3.28;;;10.20;99.90;;;;;;5074908;28;20055;-66
2024/03/26 09:15:29;;;;;;;4.60;3.53;;;10.30;99.90;;;;;;5074684;28;20063;-66
2024/03/26 09:17:55;;;;;;;6.07;3.38;;;10.30;99.90;;;;;;5074527;28;20466;-67
2024/03/26 09:20:20;;;;;;;6.63;3.47;;;10.50;99.90;;;;;;5074406;28;20029;-67
2024/03/26 09:22:46;;;;;;;6.80;2.92;;;10.60;99.90;;;;;;5074677;28;20107;-67
2024/03/26 09:25:12;;;;;;;6.10;3.25;;;10.70;99.90;;;;;;5074406;28;20112;-67
2024/03/26 09:27:37;;;;;;;5.10;3.33;;;10.90;99.90;;;;;;5074300;28;20031;-66
2024/03/26 09:30:04;;;;;;;7.18;3.05;;;11.10;99.90;;;;;;5074462;28;20020;-67
2024/03/26 09:32:29;;;;;;;7.63;3.50;;;11.60;99.90;;;;;;5074073;28;20025;-65
2024/03/26 09:34:55;;;;;;;4.32;2.97;;;11.90;99.90;;;;;;5074015;28;20036;-66
2024/03/26 09:37:20;;;;;;;6.18;3.38;;;12.20;99.90;;;;;;5074002;28;20024;-65
2024/03/26 09:39:46;;;;;;;5.75;2.75;;;12.40;99.90;;;;;;5056252;28;20047;-66
2024/03/26 09:42:12;;;;;;;3.97;3.20;;;12.30;99.90;;;;;;5073831;28;20024;-65
2024/03/26 09:44:40;;;;;;;4.53;2.97;;;12.30;99.90;;;;;;5074013;28;20035;-66
2024/03/26 09:47:06;;;;;;;8.02;3.45;;;12.00;99.90;;;;;;5056366;28;20032;-65
2024/03/26 09:49:34;;;;;;;5.95;2.95;;;12.00;99.90;;;;;;5056366;28;20024;-66
2024/03/26 09:52:01;;;;;;;8.38;3.35;;;12.10;99.90;;;;;;5074011;28;20505;-65
2024/03/26 09:54:28;;;;;;;6.20;3.00;;;11.80;99.90;;;;;;5056236;28;20024;-65
2024/03/26 09:56:54;;;;;;;9.02;3.58;;;11.60;99.90;;;;;;5039394;28;20025;-67
2024/03/26 09:59:20;;;;;;;6.38;3.53;;;11.50;99.90;;;;;;5073937;28;20028;-67
2024/03/26 10:01:47;;;;;;;6.13;3.60;;;11.50;99.90;;;;;;5073637;28;20107;-65
2024/03/26 10:04:13;;;;;;;8.80;3.60;;;11.60;99.90;;;;;;5073534;28;20115;-66
2024/03/26 10:06:40;;;;;;;5.45;3.00;;;11.80;99.90;;;;;;5073600;28;20071;-66
2024/03/26 10:09:07;;;;;;;5.85;3.53;;;11.70;99.90;;;;;;5055997;28;20021;-67
2024/03/26 10:11:32;;;;;;;7.50;2.92;;;11.70;99.90;;;;;;5073647;28;20103;-67
2024/03/26 10:13:58;;;;;;;9.07;3.63;;;11.70;99.90;;;;;;5073503;28;20056;-65
2024/03/26 10:16:23;;;;;;;7.43;3.00;;;11.70;99.90;;;;;;5073454;28;20028;-65
2024/03/26 10:18:49;;;;;;;3.95;2.60;;;11.70;99.90;;;;;;5073425;28;20020;-66
2024/03/26 10:21:14;;;;;;;7.80;3.33;;;11.80;99.90;;;;;;5073400;28;20390;-66
2024/03/26 10:23:40;;;;;;;5.28;3.13;;;11.90;99.90;;;;;;5073386;28;20112;-66
2024/03/26 10:26:05;;;;;;;4.60;3.30;;;11.90;99.90;;;;;;5073492;28;20035;-66
2024/03/26 10:28:31;;;;;;;4.18;2.80;;;11.80;99.90;;;;;;5073323;28;20394;-65
2024/03/26 10:30:57;;;;;;;6.68;2.72;;;11.70;99.90;;;;;;5073058;28;20162;-66
2024/03/26 10:33:24;;;;;;;8.88;3.30;;;11.50;99.90;;;;;;5073415;28;20123;-66
2024/03/26 10:35:51;;;;;;;6.15;3.13;;;11.60;99.90;;;;;;5073237;28;20099;-66
2024/03/26 10:38:20;;;;;;;4.10;2.63;;;11.50;99.90;;;;;;5073001;28;20482;-66
2024/03/26 10:41:02;;;;;;;5.20;3.65;;;11.50;99.90;;;;;;5073352;28;20068;-66
2024/03/26 10:43:28;;;;;;;4.87;2.80;;;11.50;99.90;;;;;;5073349;28;20028;-66
2024/03/26 10:45:54;;;;;;;6.00;2.80;;;11.50;99.90;;;;;;5055288;28;20321;-67
2024/03/26 10:48:20;;;;;;;5.63;3.40;;;11.60;99.90;;;;;;5072694;28;20028;-67
2024/03/26 10:50:47;;;;;;;4.45;2.97;;;11.70;99.90;;;;;;5055358;28;20032;-67
2024/03/26 10:53:13;;;;;;;5.40;3.05;;;11.90;99.90;;;;;;5073287;28;20056;-67
2024/03/26 10:55:42;;;;;;;6.90;2.95;;;11.90;99.90;;;;;;5055411;28;20055;-66
2024/03/26 10:58:08;;;;;;;4.43;2.72;;;11.80;99.90;;;;;;5073126;28;20495;-67
2024/03/26 11:00:36;;;;;;;8.52;2.72;;;11.80;99.90;;;;;;5073097;28;20112;-67
2024/03/26 11:03:01;;;;;;;3.47;2.22;;;11.90;99.90;;;;;;5055566;28;20116;-67
2024/03/26 11:05:30;;;;;;;6.68;2.50;;;12.30;99.90;;;;;;5072977;28;20466;-65
2024/03/26 11:07:56;;;;;;;5.00;2.30;;;12.50;99.90;;;;;;5072981;28;20052;-65
2024/03/26 11:10:21;;;;;;;5.22;2.40;;;12.50;99.90;;;;;;5072916;28;20498;-66
2024/03/26 11:12:50;;;;;;;4.85;2.25;;;12.40;99.90;;;;;;5055121;28;20067;-66
2024/03/26 11:15:20;;;;;;;8.98;2.45;;;12.40;99.90;;;;;;5073029;28;20085;-67
2024/03/26 11:17:58;;;;;;;3.25;2.05;;;12.70;99.90;;;;;;5054802;28;20029;-66
2024/03/26 11:20:25;;;;;;;13.07;2.90;;;12.70;99.90;;;;;;5072730;28;20025;-68
2024/03/26 11:23:06;;;;;;;4.68;2.40;;;12.20;99.90;;;;;;5072529;28;20060;-67
2024/03/26 11:25:33;;;;;;;3.80;2.20;;;12.10;99.90;;;;;;5072747;28;20474;-67
2024/03/26 11:28:06;;;;;;;5.78;2.58;;;12.30;99.90;;;;;;5054908;28;20098;-68
2024/03/26 11:30:33;;;;;;;9.80;2.17;;;12.10;99.90;;;;;;5072430;28;20039;-67
2024/03/26 11:33:00;;;;;;;4.70;2.50;;;12.10;99.90;;;;;;5072402;28;20027;-66
2024/03/26 11:35:28;;;;;;;3.47;2.28;;;12.00;99.90;;;;;;5054699;28;20440;-66
2024/03/26 11:37:56;;;;;;;5.82;2.30;;;12.00;99.90;;;;;;5054637;28;20048;-66
2024/03/26 11:40:23;;;;;;;5.70;2.17;;;12.00;99.90;;;;;;5072335;28;20055;-67
2024/03/26 11:42:51;;;;;;;6.53;2.20;;;12.10;99.90;;;;;;5072901;28;20016;-70
2024/03/26 11:45:16;;;;;;;5.05;2.42;;;12.20;99.90;;;;;;5072699;28;20470;-69
2024/03/26 11:47:42;;;;;;;5.30;2.17;;;12.20;99.90;;;;;;5072285;28;20027;-70
2024/03/26 11:50:09;;;;;;;3.60;2.22;;;12.10;99.90;;;;;;5072658;28;20025;-70
2024/03/26 11:52:35;;;;;;;5.30;2.47;;;12.10;99.90;;;;;;5072665;28;20021;-70
2024/03/26 11:55:02;;;;;;;4.50;2.00;;;12.10;99.90;;;;;;5072713;28;20023;-69
2024/03/26 11:57:28;;;;;;;6.30;2.15;;;12.00;99.90;;;;;;5072494;28;20035;-69
2024/03/26 11:59:54;;;;;;;3.47;2.28;;;11.90;99.90;;;;;;5074013;28;20103;-70
2024/03/26 12:02:20;;;;;;;4.60;2.30;;;11.90;99.90;;;;;;5075721;28;20127;-70
2024/03/26 12:04:46;;;;;;;4.97;2.30;;;11.90;99.90;;;;;;5076160;28;20021;-70
2024/03/26 12:07:15;;;;;;;6.20;2.70;;;11.80;99.90;;;;;;5075963;28;20020;-70
2024/03/26 12:09:40;;;;;;;10.05;3.00;;;11.70;99.90;;;;;;5076102;28;20029;-70
2024/03/26 12:12:09;;;;;;;6.32;3.00;;;11.70;99.90;;;;;;5076075;28;20038;-69
2024/03/26 12:14:35;;;;;;;5.18;3.03;;;11.70;99.90;;;;;;5075486;28;20071;-69
2024/03/26 12:17:03;;;;;;;4.05;2.58;;;11.60;99.90;;;;;;5076215;28;20041;-69
2024/03/26 12:19:28;;;;;;;6.05;3.05;;;11.70;99.90;;;;;;5075868;28;20409;-70
2024/03/26 12:21:54;;;;;;;7.65;3.17;;;11.70;99.90;;;;;;5075578;28;20028;-69
2024/03/26 12:24:20;;;;;;;5.68;3.03;;;11.80;99.90;;;;;;5075874;28;20024;-70
2024/03/26 12:26:45;;;;;;;8.20;3.08;;;11.80;99.90;;;;;;5075317;28;20493;-69
2024/03/26 12:29:11;;;;;;;6.55;3.17;;;11.90;99.90;;;;;;5075766;28;20021;-70
2024/03/26 12:31:37;;;;;;;5.22;3.10;;;12.00;99.90;;;;;;5075808;28;20031;-70
2024/03/26 12:34:11;;;;;;;6.68;2.58;;;12.20;99.90;;;;;;5075780;28;20043;-70
2024/03/26 12:36:37;;;;;;;5.25;2.30;;;12.30;99.90;;;;;;5075589;28;20399;-69
2024/03/26 12:39:05;;;;;;;6.28;2.45;;;12.50;99.90;;;;;;5075341;28;20056;-70
2024/03/26 12:41:31;;;;;;;5.68;2.80;;;12.80;99.90;;;;;;5075023;28;20140;-69
2024/03/26 12:43:57;;;;;;;2.88;2.53;;;13.00;99.90;;;;;;5075461;28;20090;-68
2024/03/26 12:46:23;;;;;;;5.40;2.05;;;13.00;99.90;;;;;;5075272;28;20020;-69